sensor_id;sensor_type;location;lat;lon;timestamp;P1;durP1;ratioP1;P2;durP2;ratioP2
83769;SDS011;73763;48.936;9.300;2024-01-10T00:01:43;22.42;;;11.50;;
83769;SDS011;73763;48.936;9.300;2024-01-10T00:04:08;19.50;;;10.80;;
83769;SDS011;73763;48.936;9.300;2024-01-10T00:06:34;20.23;;;11.33;;
83769;SDS011;73763;48.936;9.300;2024-01-10T00:09:00;19.58;;;11.00;;
83769;SDS011;73763;48.936;9.300;2024-01-10T00:11:25;19.87;;;11.17;;
83769;SDS011;73763;48.936;9.300;2024-01-10T00:13:51;20.33;;;10.50;;
83769;SDS011;73763;48.936;9.300;2024-01-10T00:16:16;18.77;;;11.00;;
83769;SDS011;73763;48.936;9.300;2024-01-10T00:18:42;19.27;;;11.37;;
83769;SDS011;73763;48.936;9.300;2024-01-10T00:21:07;18.93;;;11.07;;
83769;SDS011;73763;48.936;9.300;2024-01-10T00:23:33;19.90;;;11.48;;
83769;SDS011;73763;48.936;9.300;2024-01-10T00:25:58;19.47;;;11.03;;
83769;SDS011;73763;48.936;9.300;2024-01-10T00:28:24;19.17;;;11.13;;
83769;SDS011;73763;48.936;9.300;2024-01-10T00:30:50;21.48;;;11.52;;
83769;SDS011;73763;48.936;9.300;2024-01-10T00:33:16;20.10;;;12.07;;
83769;SDS011;73763;48.936;9.300;2024-01-10T00:35:41;20.27;;;11.55;;
83769;SDS011;73763;48.936;9.300;2024-01-10T00:38:07;19.07;;;10.90;;
83769;SDS011;73763;48.936;9.300;2024-01-10T00:40:33;21.05;;;10.90;;
83769;SDS011;73763;48.936;9.300;2024-01-10T00:42:59;20.70;;;11.18;;
83769;SDS011;73763;48.936;9.300;2024-01-10T00:45:24;18.83;;;10.33;;
83769;SDS011;73763;48.936;9.300;2024-01-10T00:47:50;18.88;;;11.60;;
83769;SDS011;73763;48.936;9.300;2024-01-10T00:50:15;18.83;;;11.07;;
83769;SDS011;73763;48.936;9.300;2024-01-10T00:52:41;19.27;;;11.30;;
83769;SDS011;73763;48.936;9.300;2024-01-10T00:55:07;20.70;;;11.47;;
83769;SDS011;73763;48.936;9.300;2024-01-10T00:57:33;19.27;;;11.17;;
83769;SDS011;73763;48.936;9.300;2024-01-10T00:59:58;22.27;;;12.00;;
83769;SDS011;73763;48.936;9.300;2024-01-10T01:02:24;19.60;;;11.70;;
83769;SDS011;73763;48.936;9.300;2024-01-10T01:04:49;18.93;;;11.33;;
83769;SDS011;73763;48.936;9.300;2024-01-10T01:07:15;20.27;;;12.13;;
83769;SDS011;73763;48.936;9.300;2024-01-10T01:09:40;17.87;;;11.00;;
83769;SDS011;73763;48.936;9.300;2024-01-10T01:12:06;20.63;;;11.37;;
83769;SDS011;73763;48.936;9.300;2024-01-10T01:14:31;19.52;;;11.02;;
83769;SDS011;73763;48.936;9.300;2024-01-10T01:16:57;21.00;;;11.50;;
83769;SDS011;73763;48.936;9.300;2024-01-10T01:19:22;20.87;;;12.00;;
83769;SDS011;73763;48.936;9.300;2024-01-10T01:21:48;19.02;;;11.38;;
83769;SDS011;73763;48.936;9.300;2024-01-10T01:24:13;21.57;;;11.77;;
83769;SDS011;73763;48.936;9.300;2024-01-10T01:26:39;19.25;;;11.23;;
83769;SDS011;73763;48.936;9.300;2024-01-10T01:29:04;21.83;;;12.10;;
83769;SDS011;73763;48.936;9.300;2024-01-10T01:31:31;20.23;;;11.30;;
83769;SDS011;73763;48.936;9.300;2024-01-10T01:33:56;20.70;;;11.60;;
83769;SDS011;73763;48.936;9.300;2024-01-10T01:36:22;22.00;;;11.67;;
83769;SDS011;73763;48.936;9.300;2024-01-10T01:38:47;23.27;;;11.98;;
83769;SDS011;73763;48.936;9.300;2024-01-10T01:41:13;21.93;;;12.23;;
83769;SDS011;73763;48.936;9.300;2024-01-10T01:43:38;18.38;;;11.07;;
83769;SDS011;73763;48.936;9.300;2024-01-10T01:46:04;19.30;;;11.87;;
83769;SDS011;73763;48.936;9.300;2024-01-10T01:48:29;19.83;;;11.80;;
83769;SDS011;73763;48.936;9.300;2024-01-10T01:50:56;20.45;;;12.02;;
83769;SDS011;73763;48.936;9.300;2024-01-10T01:53:24;21.08;;;12.77;;
83769;SDS011;73763;48.936;9.300;2024-01-10T01:55:51;20.60;;;11.75;;
83769;SDS011;73763;48.936;9.300;2024-01-10T01:58:17;23.67;;;12.60;;
83769;SDS011;73763;48.936;9.300;2024-01-10T02:00:43;17.25;;;11.73;;
83769;SDS011;73763;48.936;9.300;2024-01-10T02:03:09;22.80;;;11.73;;
83769;SDS011;73763;48.936;9.300;2024-01-10T02:05:35;21.73;;;11.73;;
83769;SDS011;73763;48.936;9.300;2024-01-10T02:08:01;21.45;;;12.13;;
83769;SDS011;73763;48.936;9.300;2024-01-10T02:10:27;22.70;;;12.20;;
83769;SDS011;73763;48.936;9.300;2024-01-10T02:12:53;20.83;;;12.23;;
83769;SDS011;73763;48.936;9.300;2024-01-10T02:15:18;20.97;;;11.83;;
83769;SDS011;73763;48.936;9.300;2024-01-10T02:17:44;23.07;;;12.57;;
83769;SDS011;73763;48.936;9.300;2024-01-10T02:20:10;22.27;;;12.32;;
83769;SDS011;73763;48.936;9.300;2024-01-10T02:22:36;20.47;;;12.60;;
83769;SDS011;73763;48.936;9.300;2024-01-10T02:25:03;20.63;;;11.80;;
83769;SDS011;73763;48.936;9.300;2024-01-10T02:27:33;21.90;;;12.32;;
83769;SDS011;73763;48.936;9.300;2024-01-10T02:30:02;21.85;;;12.57;;
83769;SDS011;73763;48.936;9.300;2024-01-10T02:32:29;20.65;;;12.20;;
83769;SDS011;73763;48.936;9.300;2024-01-10T02:34:55;20.00;;;11.97;;
83769;SDS011;73763;48.936;9.300;2024-01-10T02:37:20;23.07;;;12.47;;
83769;SDS011;73763;48.936;9.300;2024-01-10T02:39:46;21.58;;;11.85;;
83769;SDS011;73763;48.936;9.300;2024-01-10T02:42:11;21.73;;;12.07;;
83769;SDS011;73763;48.936;9.300;2024-01-10T02:44:37;20.50;;;11.90;;
83769;SDS011;73763;48.936;9.300;2024-01-10T02:47:02;22.77;;;12.38;;
83769;SDS011;73763;48.936;9.300;2024-01-10T02:49:28;20.45;;;12.27;;
83769;SDS011;73763;48.936;9.300;2024-01-10T02:51:54;20.23;;;12.10;;
83769;SDS011;73763;48.936;9.300;2024-01-10T02:54:19;21.57;;;13.20;;
83769;SDS011;73763;48.936;9.300;2024-01-10T02:56:45;21.67;;;12.35;;
83769;SDS011;73763;48.936;9.300;2024-01-10T02:59:10;20.93;;;12.67;;
83769;SDS011;73763;48.936;9.300;2024-01-10T03:01:36;21.80;;;12.50;;
83769;SDS011;73763;48.936;9.300;2024-01-10T03:04:01;22.70;;;12.50;;
83769;SDS011;73763;48.936;9.300;2024-01-10T03:06:27;21.70;;;12.33;;
83769;SDS011;73763;48.936;9.300;2024-01-10T03:08:54;21.17;;;12.18;;
83769;SDS011;73763;48.936;9.300;2024-01-10T03:11:19;19.90;;;12.27;;
83769;SDS011;73763;48.936;9.300;2024-01-10T03:13:45;21.20;;;12.37;;
83769;SDS011;73763;48.936;9.300;2024-01-10T03:16:12;24.50;;;12.63;;
83769;SDS011;73763;48.936;9.300;2024-01-10T03:18:37;23.80;;;12.77;;
83769;SDS011;73763;48.936;9.300;2024-01-10T03:21:03;21.00;;;12.30;;
83769;SDS011;73763;48.936;9.300;2024-01-10T03:23:29;21.58;;;12.35;;
83769;SDS011;73763;48.936;9.300;2024-01-10T03:25:55;21.87;;;13.07;;
83769;SDS011;73763;48.936;9.300;2024-01-10T03:28:21;23.50;;;12.30;;
83769;SDS011;73763;48.936;9.300;2024-01-10T03:30:47;21.87;;;12.70;;
83769;SDS011;73763;48.936;9.300;2024-01-10T03:33:12;22.92;;;12.63;;
83769;SDS011;73763;48.936;9.300;2024-01-10T03:35:38;20.57;;;12.23;;
83769;SDS011;73763;48.936;9.300;2024-01-10T03:38:03;21.33;;;12.77;;
83769;SDS011;73763;48.936;9.300;2024-01-10T03:40:29;22.80;;;12.67;;
83769;SDS011;73763;48.936;9.300;2024-01-10T03:42:54;22.60;;;13.10;;
83769;SDS011;73763;48.936;9.300;2024-01-10T03:45:20;22.50;;;13.60;;
83769;SDS011;73763;48.936;9.300;2024-01-10T03:47:46;23.90;;;13.20;;
83769;SDS011;73763;48.936;9.300;2024-01-10T03:50:11;24.60;;;12.67;;
83769;SDS011;73763;48.936;9.300;2024-01-10T03:52:37;23.73;;;12.80;;
83769;SDS011;73763;48.936;9.300;2024-01-10T03:55:02;21.33;;;12.45;;
83769;SDS011;73763;48.936;9.300;2024-01-10T03:57:28;21.83;;;12.88;;
83769;SDS011;73763;48.936;9.300;2024-01-10T03:59:54;22.43;;;13.20;;
83769;SDS011;73763;48.936;9.300;2024-01-10T04:02:19;22.83;;;12.52;;
83769;SDS011;73763;48.936;9.300;2024-01-10T04:04:45;24.17;;;13.17;;
83769;SDS011;73763;48.936;9.300;2024-01-10T04:07:10;21.70;;;12.87;;
83769;SDS011;73763;48.936;9.300;2024-01-10T04:09:36;22.48;;;13.38;;
83769;SDS011;73763;48.936;9.300;2024-01-10T04:12:01;23.30;;;13.17;;
83769;SDS011;73763;48.936;9.300;2024-01-10T04:14:27;21.92;;;13.18;;
83769;SDS011;73763;48.936;9.300;2024-01-10T04:16:53;24.87;;;13.50;;
83769;SDS011;73763;48.936;9.300;2024-01-10T04:19:18;23.38;;;13.35;;
83769;SDS011;73763;48.936;9.300;2024-01-10T04:21:44;22.67;;;13.47;;
83769;SDS011;73763;48.936;9.300;2024-01-10T04:24:09;23.60;;;13.93;;
83769;SDS011;73763;48.936;9.300;2024-01-10T04:26:35;22.40;;;13.23;;
83769;SDS011;73763;48.936;9.300;2024-01-10T04:29:00;22.77;;;13.40;;
83769;SDS011;73763;48.936;9.300;2024-01-10T04:31:26;23.02;;;13.40;;
83769;SDS011;73763;48.936;9.300;2024-01-10T04:33:51;25.57;;;13.50;;
83769;SDS011;73763;48.936;9.300;2024-01-10T04:36:17;24.93;;;13.97;;
83769;SDS011;73763;48.936;9.300;2024-01-10T04:38:42;25.20;;;14.23;;
83769;SDS011;73763;48.936;9.300;2024-01-10T04:41:08;22.63;;;13.40;;
83769;SDS011;73763;48.936;9.300;2024-01-10T04:43:33;24.08;;;13.57;;
83769;SDS011;73763;48.936;9.300;2024-01-10T04:45:59;25.70;;;13.93;;
83769;SDS011;73763;48.936;9.300;2024-01-10T04:48:25;22.77;;;13.30;;
83769;SDS011;73763;48.936;9.300;2024-01-10T04:50:50;21.33;;;12.93;;
83769;SDS011;73763;48.936;9.300;2024-01-10T04:53:16;24.97;;;13.67;;
83769;SDS011;73763;48.936;9.300;2024-01-10T04:55:41;23.42;;;14.05;;
83769;SDS011;73763;48.936;9.300;2024-01-10T04:58:07;25.37;;;14.00;;
83769;SDS011;73763;48.936;9.300;2024-01-10T05:00:32;24.15;;;13.85;;
83769;SDS011;73763;48.936;9.300;2024-01-10T05:02:58;23.60;;;13.80;;
83769;SDS011;73763;48.936;9.300;2024-01-10T05:05:23;23.93;;;13.70;;
83769;SDS011;73763;48.936;9.300;2024-01-10T05:07:49;26.20;;;13.65;;
83769;SDS011;73763;48.936;9.300;2024-01-10T05:10:15;22.23;;;13.32;;
83769;SDS011;73763;48.936;9.300;2024-01-10T05:12:40;23.40;;;13.52;;
83769;SDS011;73763;48.936;9.300;2024-01-10T05:15:06;23.17;;;13.80;;
83769;SDS011;73763;48.936;9.300;2024-01-10T05:17:32;23.25;;;14.05;;
83769;SDS011;73763;48.936;9.300;2024-01-10T05:19:57;23.70;;;14.02;;
83769;SDS011;73763;48.936;9.300;2024-01-10T05:22:23;24.70;;;14.63;;
83769;SDS011;73763;48.936;9.300;2024-01-10T05:24:49;23.10;;;13.73;;
83769;SDS011;73763;48.936;9.300;2024-01-10T05:27:14;22.83;;;13.82;;
83769;SDS011;73763;48.936;9.300;2024-01-10T05:29:40;23.83;;;14.03;;
83769;SDS011;73763;48.936;9.300;2024-01-10T05:32:05;23.57;;;14.30;;
83769;SDS011;73763;48.936;9.300;2024-01-10T05:34:31;21.80;;;13.75;;
83769;SDS011;73763;48.936;9.300;2024-01-10T05:36:56;22.70;;;13.47;;
83769;SDS011;73763;48.936;9.300;2024-01-10T05:39:22;22.70;;;14.45;;
83769;SDS011;73763;48.936;9.300;2024-01-10T05:41:47;31.57;;;17.73;;
83769;SDS011;73763;48.936;9.300;2024-01-10T05:44:13;25.80;;;15.70;;
83769;SDS011;73763;48.936;9.300;2024-01-10T05:46:38;24.50;;;14.68;;
83769;SDS011;73763;48.936;9.300;2024-01-10T05:49:04;24.93;;;14.73;;
83769;SDS011;73763;48.936;9.300;2024-01-10T05:51:30;25.38;;;14.68;;
83769;SDS011;73763;48.936;9.300;2024-01-10T05:53:56;25.43;;;14.80;;
83769;SDS011;73763;48.936;9.300;2024-01-10T05:56:21;24.37;;;15.07;;
83769;SDS011;73763;48.936;9.300;2024-01-10T05:58:47;26.38;;;15.23;;
83769;SDS011;73763;48.936;9.300;2024-01-10T06:01:12;26.77;;;15.07;;
83769;SDS011;73763;48.936;9.300;2024-01-10T06:03:38;23.98;;;14.32;;
83769;SDS011;73763;48.936;9.300;2024-01-10T06:06:03;25.90;;;14.67;;
83769;SDS011;73763;48.936;9.300;2024-01-10T06:08:29;23.58;;;14.55;;
83769;SDS011;73763;48.936;9.300;2024-01-10T06:10:55;25.23;;;14.63;;
83769;SDS011;73763;48.936;9.300;2024-01-10T06:13:20;25.60;;;15.27;;
83769;SDS011;73763;48.936;9.300;2024-01-10T06:15:46;24.20;;;14.70;;
83769;SDS011;73763;48.936;9.300;2024-01-10T06:18:11;25.60;;;15.30;;
83769;SDS011;73763;48.936;9.300;2024-01-10T06:20:37;22.67;;;13.90;;
83769;SDS011;73763;48.936;9.300;2024-01-10T06:23:02;25.65;;;14.75;;
83769;SDS011;73763;48.936;9.300;2024-01-10T06:25:28;23.73;;;14.80;;
83769;SDS011;73763;48.936;9.300;2024-01-10T06:27:54;27.30;;;15.00;;
83769;SDS011;73763;48.936;9.300;2024-01-10T06:30:19;25.13;;;15.07;;
83769;SDS011;73763;48.936;9.300;2024-01-10T06:32:45;27.37;;;14.77;;
83769;SDS011;73763;48.936;9.300;2024-01-10T06:35:10;25.80;;;14.38;;
83769;SDS011;73763;48.936;9.300;2024-01-10T06:37:36;24.47;;;13.90;;
83769;SDS011;73763;48.936;9.300;2024-01-10T06:40:03;25.50;;;15.07;;
83769;SDS011;73763;48.936;9.300;2024-01-10T06:42:28;24.13;;;14.57;;
83769;SDS011;73763;48.936;9.300;2024-01-10T06:44:54;26.60;;;15.23;;
83769;SDS011;73763;48.936;9.300;2024-01-10T06:47:19;22.70;;;14.15;;
83769;SDS011;73763;48.936;9.300;2024-01-10T06:49:45;27.87;;;15.53;;
83769;SDS011;73763;48.936;9.300;2024-01-10T06:52:10;25.90;;;14.80;;
83769;SDS011;73763;48.936;9.300;2024-01-10T06:54:36;24.73;;;15.30;;
83769;SDS011;73763;48.936;9.300;2024-01-10T06:57:02;23.20;;;13.87;;
83769;SDS011;73763;48.936;9.300;2024-01-10T06:59:28;23.07;;;14.03;;
83769;SDS011;73763;48.936;9.300;2024-01-10T07:01:53;22.58;;;14.10;;
83769;SDS011;73763;48.936;9.300;2024-01-10T07:04:19;26.08;;;14.57;;
83769;SDS011;73763;48.936;9.300;2024-01-10T07:06:44;28.13;;;15.50;;
83769;SDS011;73763;48.936;9.300;2024-01-10T07:09:10;25.37;;;14.93;;
83769;SDS011;73763;48.936;9.300;2024-01-10T07:11:36;24.40;;;14.57;;
83769;SDS011;73763;48.936;9.300;2024-01-10T07:14:01;26.10;;;16.07;;
83769;SDS011;73763;48.936;9.300;2024-01-10T07:16:27;26.25;;;15.38;;
83769;SDS011;73763;48.936;9.300;2024-01-10T07:18:52;27.03;;;15.67;;
83769;SDS011;73763;48.936;9.300;2024-01-10T07:21:18;26.75;;;15.55;;
83769;SDS011;73763;48.936;9.300;2024-01-10T07:23:43;24.70;;;15.33;;
83769;SDS011;73763;48.936;9.300;2024-01-10T07:26:12;28.90;;;15.98;;
83769;SDS011;73763;48.936;9.300;2024-01-10T07:28:38;26.57;;;15.53;;
83769;SDS011;73763;48.936;9.300;2024-01-10T07:31:03;25.63;;;14.97;;
83769;SDS011;73763;48.936;9.300;2024-01-10T07:33:29;25.35;;;15.35;;
83769;SDS011;73763;48.936;9.300;2024-01-10T07:35:54;25.03;;;16.30;;
83769;SDS011;73763;48.936;9.300;2024-01-10T07:38:20;28.80;;;16.95;;
83769;SDS011;73763;48.936;9.300;2024-01-10T07:40:45;28.63;;;17.27;;
83769;SDS011;73763;48.936;9.300;2024-01-10T07:43:11;25.87;;;15.70;;
83769;SDS011;73763;48.936;9.300;2024-01-10T07:45:37;23.48;;;15.35;;
83769;SDS011;73763;48.936;9.300;2024-01-10T07:48:02;23.70;;;15.50;;
83769;SDS011;73763;48.936;9.300;2024-01-10T07:50:28;27.02;;;16.42;;
83769;SDS011;73763;48.936;9.300;2024-01-10T07:52:53;25.63;;;15.87;;
83769;SDS011;73763;48.936;9.300;2024-01-10T07:55:19;26.63;;;15.47;;
83769;SDS011;73763;48.936;9.300;2024-01-10T07:57:44;26.80;;;16.63;;
83769;SDS011;73763;48.936;9.300;2024-01-10T08:00:10;26.23;;;15.47;;
83769;SDS011;73763;48.936;9.300;2024-01-10T08:02:39;26.95;;;16.30;;
83769;SDS011;73763;48.936;9.300;2024-01-10T08:05:04;23.80;;;15.15;;
83769;SDS011;73763;48.936;9.300;2024-01-10T08:07:31;25.80;;;14.95;;
83769;SDS011;73763;48.936;9.300;2024-01-10T08:09:57;27.47;;;16.23;;
83769;SDS011;73763;48.936;9.300;2024-01-10T08:12:22;26.37;;;15.03;;
83769;SDS011;73763;48.936;9.300;2024-01-10T08:14:49;27.23;;;15.52;;
83769;SDS011;73763;48.936;9.300;2024-01-10T08:17:14;26.25;;;15.60;;
83769;SDS011;73763;48.936;9.300;2024-01-10T08:19:40;25.77;;;15.17;;
83769;SDS011;73763;48.936;9.300;2024-01-10T08:22:05;24.13;;;15.13;;
83769;SDS011;73763;48.936;9.300;2024-01-10T08:24:31;25.97;;;15.67;;
83769;SDS011;73763;48.936;9.300;2024-01-10T08:26:56;24.63;;;15.77;;
83769;SDS011;73763;48.936;9.300;2024-01-10T08:29:22;26.43;;;15.70;;
83769;SDS011;73763;48.936;9.300;2024-01-10T08:31:47;25.90;;;15.83;;
83769;SDS011;73763;48.936;9.300;2024-01-10T08:34:13;26.63;;;15.85;;
83769;SDS011;73763;48.936;9.300;2024-01-10T08:36:39;27.80;;;16.15;;
83769;SDS011;73763;48.936;9.300;2024-01-10T08:39:05;25.70;;;15.53;;
83769;SDS011;73763;48.936;9.300;2024-01-10T08:41:30;26.00;;;15.95;;
83769;SDS011;73763;48.936;9.300;2024-01-10T08:43:56;30.35;;;16.38;;
83769;SDS011;73763;48.936;9.300;2024-01-10T08:46:21;26.73;;;17.00;;
83769;SDS011;73763;48.936;9.300;2024-01-10T08:48:47;26.50;;;15.63;;
83769;SDS011;73763;48.936;9.300;2024-01-10T08:51:13;25.20;;;16.20;;
83769;SDS011;73763;48.936;9.300;2024-01-10T08:53:39;25.77;;;16.38;;
83769;SDS011;73763;48.936;9.300;2024-01-10T08:56:04;26.60;;;15.83;;
83769;SDS011;73763;48.936;9.300;2024-01-10T08:58:30;26.20;;;15.98;;
83769;SDS011;73763;48.936;9.300;2024-01-10T09:00:55;25.55;;;16.00;;
83769;SDS011;73763;48.936;9.300;2024-01-10T09:03:21;30.07;;;17.90;;
83769;SDS011;73763;48.936;9.300;2024-01-10T09:05:46;32.33;;;20.45;;
83769;SDS011;73763;48.936;9.300;2024-01-10T09:08:12;28.40;;;16.80;;
83769;SDS011;73763;48.936;9.300;2024-01-10T09:10:37;32.17;;;20.67;;
83769;SDS011;73763;48.936;9.300;2024-01-10T09:13:03;25.77;;;17.17;;
83769;SDS011;73763;48.936;9.300;2024-01-10T09:15:28;26.40;;;17.35;;
83769;SDS011;73763;48.936;9.300;2024-01-10T09:17:54;26.50;;;16.00;;
83769;SDS011;73763;48.936;9.300;2024-01-10T09:20:19;21.90;;;15.27;;
83769;SDS011;73763;48.936;9.300;2024-01-10T09:22:45;25.60;;;16.23;;
83769;SDS011;73763;48.936;9.300;2024-01-10T09:25:10;22.07;;;16.17;;
83769;SDS011;73763;48.936;9.300;2024-01-10T09:27:36;23.35;;;16.00;;
83769;SDS011;73763;48.936;9.300;2024-01-10T09:30:02;24.83;;;17.50;;
83769;SDS011;73763;48.936;9.300;2024-01-10T09:32:28;24.92;;;17.50;;
83769;SDS011;73763;48.936;9.300;2024-01-10T09:34:54;26.77;;;17.35;;
83769;SDS011;73763;48.936;9.300;2024-01-10T09:37:20;27.70;;;16.80;;
83769;SDS011;73763;48.936;9.300;2024-01-10T09:39:45;25.48;;;16.83;;
83769;SDS011;73763;48.936;9.300;2024-01-10T09:42:11;25.07;;;17.30;;
83769;SDS011;73763;48.936;9.300;2024-01-10T09:44:37;25.77;;;17.90;;
83769;SDS011;73763;48.936;9.300;2024-01-10T09:47:03;27.23;;;17.83;;
83769;SDS011;73763;48.936;9.300;2024-01-10T09:49:29;32.00;;;18.17;;
83769;SDS011;73763;48.936;9.300;2024-01-10T09:51:57;26.33;;;17.57;;
83769;SDS011;73763;48.936;9.300;2024-01-10T09:54:24;27.52;;;18.15;;
83769;SDS011;73763;48.936;9.300;2024-01-10T09:56:51;25.08;;;17.08;;
83769;SDS011;73763;48.936;9.300;2024-01-10T09:59:16;26.60;;;17.77;;
83769;SDS011;73763;48.936;9.300;2024-01-10T10:01:42;26.10;;;17.67;;
83769;SDS011;73763;48.936;9.300;2024-01-10T10:04:11;25.85;;;18.35;;
83769;SDS011;73763;48.936;9.300;2024-01-10T10:06:37;24.92;;;17.42;;
83769;SDS011;73763;48.936;9.300;2024-01-10T10:09:03;25.45;;;16.80;;
83769;SDS011;73763;48.936;9.300;2024-01-10T10:11:28;27.57;;;17.67;;
83769;SDS011;73763;48.936;9.300;2024-01-10T10:13:54;26.38;;;17.80;;
83769;SDS011;73763;48.936;9.300;2024-01-10T10:16:23;28.53;;;18.17;;
83769;SDS011;73763;48.936;9.300;2024-01-10T10:18:50;26.92;;;18.42;;
83769;SDS011;73763;48.936;9.300;2024-01-10T10:21:15;29.23;;;18.50;;
83769;SDS011;73763;48.936;9.300;2024-01-10T10:23:41;26.60;;;18.60;;
83769;SDS011;73763;48.936;9.300;2024-01-10T10:26:14;29.33;;;18.67;;
83769;SDS011;73763;48.936;9.300;2024-01-10T10:28:41;29.23;;;19.23;;
83769;SDS011;73763;48.936;9.300;2024-01-10T10:31:07;28.93;;;19.30;;
83769;SDS011;73763;48.936;9.300;2024-01-10T10:33:33;31.08;;;19.55;;
83769;SDS011;73763;48.936;9.300;2024-01-10T10:35:58;28.83;;;19.70;;
83769;SDS011;73763;48.936;9.300;2024-01-10T10:38:24;28.83;;;18.73;;
83769;SDS011;73763;48.936;9.300;2024-01-10T10:40:49;27.77;;;18.67;;
83769;SDS011;73763;48.936;9.300;2024-01-10T10:43:15;27.90;;;19.27;;
83769;SDS011;73763;48.936;9.300;2024-01-10T10:45:46;27.77;;;18.85;;
83769;SDS011;73763;48.936;9.300;2024-01-10T10:48:13;27.33;;;18.75;;
83769;SDS011;73763;48.936;9.300;2024-01-10T10:50:42;28.20;;;18.90;;
83769;SDS011;73763;48.936;9.300;2024-01-10T10:53:15;27.38;;;18.55;;
83769;SDS011;73763;48.936;9.300;2024-01-10T10:55:43;28.02;;;19.30;;
83769;SDS011;73763;48.936;9.300;2024-01-10T10:58:11;28.10;;;19.47;;
83769;SDS011;73763;48.936;9.300;2024-01-10T11:00:37;27.35;;;18.90;;
83769;SDS011;73763;48.936;9.300;2024-01-10T11:03:04;27.15;;;18.90;;
83769;SDS011;73763;48.936;9.300;2024-01-10T11:05:31;26.65;;;18.15;;
83769;SDS011;73763;48.936;9.300;2024-01-10T11:07:57;27.73;;;18.87;;
83769;SDS011;73763;48.936;9.300;2024-01-10T11:10:28;26.30;;;18.50;;
83769;SDS011;73763;48.936;9.300;2024-01-10T11:18:28;26.73;;;18.98;;
83769;SDS011;73763;48.936;9.300;2024-01-10T11:23:55;26.58;;;19.33;;
83769;SDS011;73763;48.936;9.300;2024-01-10T11:26:23;26.57;;;17.97;;
83769;SDS011;73763;48.936;9.300;2024-01-10T11:28:48;27.83;;;19.35;;
83769;SDS011;73763;48.936;9.300;2024-01-10T11:31:16;28.52;;;20.23;;
83769;SDS011;73763;48.936;9.300;2024-01-10T11:33:52;28.48;;;20.33;;
83769;SDS011;73763;48.936;9.300;2024-01-10T11:36:18;27.37;;;19.17;;
83769;SDS011;73763;48.936;9.300;2024-01-10T11:41:20;26.42;;;18.80;;
83769;SDS011;73763;48.936;9.300;2024-01-10T11:46:38;27.42;;;19.48;;
83769;SDS011;73763;48.936;9.300;2024-01-10T11:49:08;25.88;;;19.77;;
83769;SDS011;73763;48.936;9.300;2024-01-10T11:51:35;26.08;;;19.73;;
83769;SDS011;73763;48.936;9.300;2024-01-10T11:54:02;26.52;;;20.15;;
83769;SDS011;73763;48.936;9.300;2024-01-10T11:56:43;25.50;;;19.88;;
83769;SDS011;73763;48.936;9.300;2024-01-10T11:59:15;27.30;;;19.97;;
83769;SDS011;73763;48.936;9.300;2024-01-10T12:01:42;26.85;;;20.40;;
83769;SDS011;73763;48.936;9.300;2024-01-10T12:04:08;26.77;;;20.65;;
83769;SDS011;73763;48.936;9.300;2024-01-10T12:06:34;26.23;;;21.05;;
83769;SDS011;73763;48.936;9.300;2024-01-10T12:09:00;26.80;;;20.63;;
83769;SDS011;73763;48.936;9.300;2024-01-10T12:11:25;30.60;;;20.80;;
83769;SDS011;73763;48.936;9.300;2024-01-10T12:13:51;27.13;;;20.83;;
83769;SDS011;73763;48.936;9.300;2024-01-10T12:16:17;26.03;;;20.23;;
83769;SDS011;73763;48.936;9.300;2024-01-10T12:18:42;26.07;;;20.27;;
83769;SDS011;73763;48.936;9.300;2024-01-10T12:21:08;28.92;;;20.92;;
83769;SDS011;73763;48.936;9.300;2024-01-10T12:23:36;26.13;;;20.77;;
83769;SDS011;73763;48.936;9.300;2024-01-10T12:26:02;25.90;;;21.20;;
83769;SDS011;73763;48.936;9.300;2024-01-10T12:28:27;24.40;;;19.98;;
83769;SDS011;73763;48.936;9.300;2024-01-10T12:30:53;26.47;;;20.10;;
83769;SDS011;73763;48.936;9.300;2024-01-10T12:33:21;28.27;;;21.23;;
83769;SDS011;73763;48.936;9.300;2024-01-10T12:36:01;26.00;;;20.50;;
83769;SDS011;73763;48.936;9.300;2024-01-10T12:38:32;25.70;;;20.63;;
83769;SDS011;73763;48.936;9.300;2024-01-10T12:40:58;27.92;;;20.52;;
83769;SDS011;73763;48.936;9.300;2024-01-10T12:43:23;29.40;;;21.38;;
83769;SDS011;73763;48.936;9.300;2024-01-10T12:46:02;27.30;;;20.95;;
83769;SDS011;73763;48.936;9.300;2024-01-10T12:48:28;28.10;;;21.05;;
83769;SDS011;73763;48.936;9.300;2024-01-10T12:50:53;28.23;;;21.43;;
83769;SDS011;73763;48.936;9.300;2024-01-10T12:53:19;28.40;;;21.08;;
83769;SDS011;73763;48.936;9.300;2024-01-10T12:55:45;27.67;;;21.03;;
83769;SDS011;73763;48.936;9.300;2024-01-10T12:58:11;28.08;;;21.45;;
83769;SDS011;73763;48.936;9.300;2024-01-10T13:00:36;29.47;;;22.47;;
83769;SDS011;73763;48.936;9.300;2024-01-10T13:03:02;29.42;;;21.30;;
83769;SDS011;73763;48.936;9.300;2024-01-10T13:05:28;31.10;;;21.50;;
83769;SDS011;73763;48.936;9.300;2024-01-10T13:07:54;28.63;;;21.20;;
83769;SDS011;73763;48.936;9.300;2024-01-10T13:10:19;29.35;;;21.13;;
83769;SDS011;73763;48.936;9.300;2024-01-10T13:12:45;31.30;;;22.17;;
83769;SDS011;73763;48.936;9.300;2024-01-10T13:15:10;27.80;;;21.70;;
83769;SDS011;73763;48.936;9.300;2024-01-10T13:17:36;29.13;;;22.17;;
83769;SDS011;73763;48.936;9.300;2024-01-10T13:20:01;30.93;;;22.40;;
83769;SDS011;73763;48.936;9.300;2024-01-10T13:22:27;31.25;;;21.80;;
83769;SDS011;73763;48.936;9.300;2024-01-10T13:24:52;30.03;;;21.73;;
83769;SDS011;73763;48.936;9.300;2024-01-10T13:27:18;28.30;;;21.23;;
83769;SDS011;73763;48.936;9.300;2024-01-10T13:29:43;30.95;;;22.75;;
83769;SDS011;73763;48.936;9.300;2024-01-10T13:32:09;30.30;;;21.13;;
83769;SDS011;73763;48.936;9.300;2024-01-10T13:34:35;26.88;;;20.70;;
83769;SDS011;73763;48.936;9.300;2024-01-10T13:37:00;27.57;;;21.37;;
83769;SDS011;73763;48.936;9.300;2024-01-10T13:39:26;28.13;;;21.23;;
83769;SDS011;73763;48.936;9.300;2024-01-10T13:41:52;28.50;;;21.92;;
83769;SDS011;73763;48.936;9.300;2024-01-10T13:44:17;27.80;;;21.75;;
83769;SDS011;73763;48.936;9.300;2024-01-10T13:46:43;25.67;;;21.00;;
83769;SDS011;73763;48.936;9.300;2024-01-10T13:49:08;28.17;;;22.00;;
83769;SDS011;73763;48.936;9.300;2024-01-10T13:51:34;28.48;;;21.63;;
83769;SDS011;73763;48.936;9.300;2024-01-10T13:53:59;31.70;;;23.47;;
83769;SDS011;73763;48.936;9.300;2024-01-10T13:56:25;37.30;;;26.60;;
83769;SDS011;73763;48.936;9.300;2024-01-10T13:58:50;28.30;;;22.08;;
83769;SDS011;73763;48.936;9.300;2024-01-10T14:01:16;30.93;;;22.30;;
83769;SDS011;73763;48.936;9.300;2024-01-10T14:03:41;30.13;;;21.50;;
83769;SDS011;73763;48.936;9.300;2024-01-10T14:06:07;30.13;;;22.58;;
83769;SDS011;73763;48.936;9.300;2024-01-10T14:08:32;29.30;;;22.47;;
83769;SDS011;73763;48.936;9.300;2024-01-10T14:10:58;30.40;;;21.67;;
83769;SDS011;73763;48.936;9.300;2024-01-10T14:13:23;28.10;;;21.15;;
83769;SDS011;73763;48.936;9.300;2024-01-10T14:15:49;28.03;;;21.67;;
83769;SDS011;73763;48.936;9.300;2024-01-10T14:18:14;28.40;;;21.20;;
83769;SDS011;73763;48.936;9.300;2024-01-10T14:20:40;26.90;;;21.00;;
83769;SDS011;73763;48.936;9.300;2024-01-10T14:23:05;29.57;;;20.90;;
83769;SDS011;73763;48.936;9.300;2024-01-10T14:25:31;29.23;;;22.00;;
83769;SDS011;73763;48.936;9.300;2024-01-10T14:27:57;29.08;;;20.75;;